createdAt,value
2017-07-17T00:00:19.752Z,18.89
2017-07-17T00:01:00.318Z,18.86
2017-07-17T00:01:40.882Z,18.88
2017-07-17T00:02:21.465Z,18.88
2017-07-17T00:03:02.037Z,18.88
2017-07-17T00:03:42.605Z,18.88
2017-07-17T00:04:23.174Z,18.81
2017-07-17T00:05:03.744Z,18.86
2017-07-17T00:05:44.361Z,18.88
2017-07-17T00:06:24.967Z,18.9
2017-07-17T00:07:05.527Z,18.92
2017-07-17T00:07:46.118Z,18.84
2017-07-17T00:08:26.734Z,18.8
2017-07-17T00:09:07.321Z,18.93
2017-07-17T00:09:47.917Z,18.9
2017-07-17T00:10:28.512Z,18.89
2017-07-17T00:11:09.117Z,18.89
2017-07-17T00:11:49.688Z,18.92
2017-07-17T00:12:30.255Z,18.86
2017-07-17T00:13:10.823Z,18.89
2017-07-17T00:13:51.419Z,18.9
2017-07-17T00:14:31.989Z,18.86
2017-07-17T00:15:12.582Z,18.9
2017-07-17T00:15:53.169Z,19.04
2017-07-17T00:16:33.745Z,18.9
2017-07-17T00:17:14.332Z,18.84
2017-07-17T00:17:54.938Z,18.89
2017-07-17T00:18:35.518Z,18.89
2017-07-17T00:19:16.110Z,18.92
2017-07-17T00:19:56.686Z,18.86
2017-07-17T00:20:37.252Z,18.96
2017-07-17T00:21:17.839Z,18.92
2017-07-17T00:21:58.517Z,18.92
2017-07-17T00:22:39.100Z,18.9
2017-07-17T00:23:19.689Z,18.89
2017-07-17T00:24:00.264Z,18.93
2017-07-17T00:24:40.882Z,18.95
2017-07-17T00:25:21.449Z,18.99
2017-07-17T00:26:02.014Z,19
2017-07-17T00:26:42.611Z,18.99
2017-07-17T00:27:23.238Z,18.92
2017-07-17T00:28:03.801Z,18.92
2017-07-17T00:28:44.386Z,19.07
2017-07-17T00:29:24.973Z,18.89
2017-07-17T00:30:05.557Z,18.95
2017-07-17T00:30:46.126Z,19.04
2017-07-17T00:31:26.722Z,18.93
2017-07-17T00:32:07.313Z,18.99
2017-07-17T00:32:47.920Z,18.98
2017-07-17T00:33:28.483Z,18.9
2017-07-17T00:34:09.084Z,18.99
2017-07-17T00:34:49.635Z,18.9
2017-07-17T00:35:30.195Z,19.02
2017-07-17T00:36:10.781Z,18.93
2017-07-17T00:36:51.402Z,18.98
2017-07-17T00:37:31.977Z,18.93
2017-07-17T00:38:12.595Z,19
2017-07-17T00:38:53.174Z,19.07
2017-07-17T00:39:33.745Z,18.98
2017-07-17T00:40:14.327Z,19.09
2017-07-17T00:40:54.929Z,19.08
2017-07-17T00:41:35.503Z,18.96
2017-07-17T00:42:16.068Z,19
2017-07-17T00:42:56.640Z,18.98
2017-07-17T00:43:37.214Z,19.04
2017-07-17T00:44:17.840Z,18.96
2017-07-17T00:44:58.430Z,18.95
2017-07-17T00:45:39.011Z,18.92
2017-07-17T00:46:19.594Z,19.08
2017-07-17T00:47:00.181Z,19.07
2017-07-17T00:47:40.780Z,19.08
2017-07-17T00:48:21.432Z,18.99
2017-07-17T00:49:02.003Z,19.04
2017-07-17T00:49:42.580Z,18.96
2017-07-17T00:50:23.162Z,19.02
2017-07-17T00:51:03.724Z,19.04
2017-07-17T00:51:44.327Z,18.96
2017-07-17T00:52:24.934Z,19.04
2017-07-17T00:53:05.513Z,18.99
2017-07-17T00:53:46.090Z,19
2017-07-17T00:54:26.643Z,19.09
2017-07-17T00:55:07.244Z,19.04
2017-07-17T00:55:47.822Z,19
2017-07-17T00:56:28.424Z,18.99
2017-07-17T00:57:08.999Z,19.02
2017-07-17T00:57:49.591Z,19.08
2017-07-17T00:58:30.180Z,19.04
2017-07-17T00:59:10.751Z,19.04
2017-07-17T00:59:51.326Z,19.08
2017-07-17T01:00:31.892Z,19.07
2017-07-17T01:01:12.493Z,18.98
2017-07-17T01:01:53.061Z,19
2017-07-17T01:02:33.653Z,19.07
2017-07-17T01:03:14.239Z,19.02
2017-07-17T01:03:54.810Z,19.09
2017-07-17T01:04:35.387Z,19.04
2017-07-17T01:05:15.990Z,19.04
2017-07-17T01:05:56.568Z,18.99
2017-07-17T01:06:37.146Z,19.08
2017-07-17T01:07:17.898Z,19.09
2017-07-17T01:07:58.500Z,19
2017-07-17T01:08:39.074Z,19.07
2017-07-17T01:09:19.623Z,19
2017-07-17T01:10:00.208Z,19.08
2017-07-17T01:10:40.799Z,18.96
2017-07-17T01:11:21.381Z,19.02
2017-07-17T01:12:01.955Z,19
2017-07-17T01:12:42.511Z,18.99
2017-07-17T01:13:23.127Z,18.93
2017-07-17T01:14:03.679Z,18.99
2017-07-17T01:14:44.257Z,19.09
2017-07-17T01:15:24.833Z,18.99
2017-07-17T01:16:05.420Z,18.99
2017-07-17T01:16:46.028Z,18.96
2017-07-17T01:17:26.618Z,18.95
2017-07-17T01:18:07.192Z,18.99
2017-07-17T01:18:47.766Z,19.09
2017-07-17T01:19:28.371Z,18.99
2017-07-17T01:20:08.941Z,18.93
2017-07-17T01:20:49.517Z,18.99
2017-07-17T01:21:30.122Z,18.96
2017-07-17T01:22:10.698Z,19
2017-07-17T01:22:51.281Z,18.92
2017-07-17T01:23:31.860Z,18.98
2017-07-17T01:24:12.472Z,18.95
2017-07-17T01:24:53.103Z,18.99
2017-07-17T01:25:33.655Z,18.98
2017-07-17T01:26:14.227Z,18.99
2017-07-17T01:26:54.807Z,19.04
2017-07-17T01:27:35.414Z,18.92
2017-07-17T01:28:15.984Z,18.89
2017-07-17T01:28:56.569Z,19.02
2017-07-17T01:29:37.152Z,18.98
2017-07-17T01:30:17.751Z,19
2017-07-17T01:30:58.330Z,18.96
2017-07-17T01:31:38.944Z,19.07
2017-07-17T01:32:19.521Z,18.98
2017-07-17T01:33:00.143Z,18.89
2017-07-17T01:33:40.749Z,18.99
2017-07-17T01:34:21.350Z,18.92
2017-07-17T01:35:01.948Z,18.92
2017-07-17T01:35:42.592Z,18.89
2017-07-17T01:36:23.175Z,18.9
2017-07-17T01:37:03.776Z,18.92
2017-07-17T01:37:44.347Z,18.93
2017-07-17T01:38:24.959Z,18.93
2017-07-17T01:39:05.566Z,18.9
2017-07-17T01:39:46.151Z,18.92
2017-07-17T01:40:26.802Z,19.07
2017-07-17T01:41:07.382Z,18.96
2017-07-17T01:41:47.985Z,18.95
2017-07-17T01:42:28.581Z,18.93
2017-07-17T01:43:09.182Z,18.89
2017-07-17T01:43:49.767Z,18.99
2017-07-17T01:44:30.342Z,19.04
2017-07-17T01:45:10.933Z,18.9
2017-07-17T01:45:51.497Z,18.89
2017-07-17T01:46:32.124Z,18.96
2017-07-17T01:47:12.710Z,18.9
2017-07-17T01:47:53.286Z,18.98
2017-07-17T01:48:33.864Z,18.89
2017-07-17T01:49:14.443Z,18.89
2017-07-17T01:49:55.008Z,18.89
2017-07-17T01:50:35.580Z,18.89
2017-07-17T01:51:16.165Z,18.9
2017-07-17T01:51:56.765Z,18.9
2017-07-17T01:52:37.364Z,18.92
2017-07-17T01:53:17.928Z,18.96
2017-07-17T01:53:58.508Z,18.86
2017-07-17T01:54:39.158Z,18.89
2017-07-17T01:55:19.724Z,18.92
2017-07-17T01:56:00.303Z,18.92
2017-07-17T01:56:40.874Z,18.86
2017-07-17T01:57:21.551Z,18.89
2017-07-17T01:58:02.124Z,18.88
2017-07-17T01:58:42.700Z,18.9
2017-07-17T01:59:23.270Z,18.9
2017-07-17T02:00:03.849Z,18.88
2017-07-17T02:00:44.418Z,18.83
2017-07-17T02:01:24.977Z,18.93
2017-07-17T02:02:05.684Z,18.84
2017-07-17T02:02:46.186Z,18.88
2017-07-17T02:03:26.759Z,18.86
2017-07-17T02:04:07.346Z,18.84
2017-07-17T02:04:47.921Z,18.8
2017-07-17T02:05:28.492Z,18.93
2017-07-17T02:06:09.096Z,18.86
2017-07-17T02:06:49.674Z,18.88
2017-07-17T02:07:30.273Z,18.77
2017-07-17T02:08:10.832Z,18.93
2017-07-17T02:08:51.408Z,18.84
2017-07-17T02:09:31.974Z,18.81
2017-07-17T02:10:12.578Z,18.74
2017-07-17T02:10:53.189Z,18.78
2017-07-17T02:11:33.832Z,18.75
2017-07-17T02:12:14.403Z,18.84
2017-07-17T02:12:55.000Z,18.84
2017-07-17T02:13:35.586Z,18.74
2017-07-17T02:14:16.154Z,18.84
2017-07-17T02:14:56.727Z,18.78
2017-07-17T02:15:37.320Z,18.88
2017-07-17T02:16:17.894Z,18.77
2017-07-17T02:16:58.460Z,18.78
2017-07-17T02:17:39.032Z,18.83
2017-07-17T02:18:19.600Z,18.81
2017-07-17T02:19:00.196Z,18.78
2017-07-17T02:19:40.766Z,18.8
2017-07-17T02:20:21.331Z,18.8
2017-07-17T02:21:01.902Z,18.78
2017-07-17T02:21:42.485Z,18.73
2017-07-17T02:22:23.049Z,18.74
2017-07-17T02:23:03.617Z,18.8
2017-07-17T02:23:44.200Z,18.78
2017-07-17T02:24:24.835Z,18.73
2017-07-17T02:25:05.420Z,18.7
2017-07-17T02:25:45.990Z,18.71
2017-07-17T02:26:26.579Z,18.74
2017-07-17T02:27:07.151Z,18.65
2017-07-17T02:27:47.728Z,18.74
2017-07-17T02:28:28.312Z,18.7
2017-07-17T02:29:08.940Z,18.74
2017-07-17T02:29:49.536Z,18.7
2017-07-17T02:30:30.138Z,18.68
2017-07-17T02:31:10.719Z,18.77
2017-07-17T02:31:51.285Z,18.7
2017-07-17T02:32:31.912Z,18.7
2017-07-17T02:33:12.480Z,18.71
2017-07-17T02:33:53.080Z,18.75
2017-07-17T02:34:33.677Z,18.68
2017-07-17T02:35:14.323Z,18.68
2017-07-17T02:35:54.921Z,18.7
2017-07-17T02:36:35.506Z,18.73
2017-07-17T02:37:16.098Z,18.73
2017-07-17T02:37:56.727Z,18.78
2017-07-17T02:38:37.335Z,18.73
2017-07-17T02:39:17.892Z,18.75
2017-07-17T02:39:58.459Z,18.8
2017-07-17T02:40:39.042Z,18.75
2017-07-17T02:41:19.616Z,18.75
2017-07-17T02:42:00.210Z,18.75
2017-07-17T02:42:40.822Z,18.75
2017-07-17T02:43:21.400Z,18.8
2017-07-17T02:44:01.985Z,18.75
2017-07-17T02:44:42.562Z,18.81
2017-07-17T02:45:23.150Z,18.78
2017-07-17T02:46:03.747Z,18.75
2017-07-17T02:46:44.370Z,18.78
2017-07-17T02:47:24.957Z,18.71
2017-07-17T02:48:05.550Z,18.73
2017-07-17T02:48:46.141Z,18.71
2017-07-17T02:49:26.763Z,18.74
2017-07-17T02:50:07.317Z,18.7
2017-07-17T02:50:47.902Z,18.71
2017-07-17T02:51:28.483Z,18.74
2017-07-17T02:52:09.044Z,18.7
2017-07-17T02:52:49.613Z,18.71
2017-07-17T02:53:30.262Z,18.68
2017-07-17T02:54:10.831Z,18.7
2017-07-17T02:54:51.439Z,18.7
2017-07-17T02:55:32.032Z,18.74
2017-07-17T02:56:12.586Z,18.63
2017-07-17T02:56:53.160Z,18.65
2017-07-17T02:57:33.787Z,18.68
2017-07-17T02:58:14.366Z,18.65
2017-07-17T02:58:54.959Z,18.55
2017-07-17T02:59:35.538Z,18.66
2017-07-17T03:00:16.112Z,18.63
2017-07-17T03:00:56.694Z,18.58
2017-07-17T03:01:37.253Z,18.65
2017-07-17T03:02:17.825Z,18.59
2017-07-17T03:02:58.440Z,18.56
2017-07-17T03:03:39.029Z,18.56
2017-07-17T03:04:19.649Z,18.58
2017-07-17T03:05:00.222Z,18.59
2017-07-17T03:05:40.797Z,18.58
2017-07-17T03:06:21.386Z,18.58
2017-07-17T03:07:02.011Z,18.6
2017-07-17T03:07:42.580Z,18.58
2017-07-17T03:08:23.143Z,18.56
2017-07-17T03:09:03.739Z,18.55
2017-07-17T03:09:44.312Z,18.63
2017-07-17T03:10:24.897Z,18.53
2017-07-17T03:11:05.468Z,18.6
2017-07-17T03:11:46.131Z,18.56
2017-07-17T03:12:26.821Z,18.49
2017-07-17T03:13:07.388Z,18.58
2017-07-17T03:13:47.983Z,18.52
2017-07-17T03:14:28.564Z,18.47
2017-07-17T03:15:09.167Z,18.55
2017-07-17T03:15:49.754Z,18.47
2017-07-17T03:16:30.372Z,18.5
2017-07-17T03:17:10.936Z,18.5
2017-07-17T03:17:51.582Z,18.45
2017-07-17T03:18:32.152Z,18.47
2017-07-17T03:19:12.726Z,18.47
2017-07-17T03:19:53.307Z,18.47
2017-07-17T03:20:33.873Z,18.45
2017-07-17T03:21:14.445Z,18.47
2017-07-17T03:21:55.026Z,18.43
2017-07-17T03:22:35.610Z,18.41
2017-07-17T03:23:16.183Z,18.5
2017-07-17T03:23:56.749Z,18.45
2017-07-17T03:24:37.328Z,18.43
2017-07-17T03:25:17.916Z,18.4
2017-07-17T03:25:58.500Z,18.44
2017-07-17T03:26:39.090Z,18.41
2017-07-17T03:27:19.734Z,18.45
2017-07-17T03:28:00.298Z,18.43
2017-07-17T03:28:40.899Z,18.47
2017-07-17T03:29:21.485Z,18.44
2017-07-17T03:30:02.085Z,18.47
2017-07-17T03:30:42.666Z,18.45
2017-07-17T03:31:23.257Z,18.44
2017-07-17T03:32:03.829Z,18.45
2017-07-17T03:32:44.423Z,18.41
2017-07-17T03:33:25.010Z,18.5
2017-07-17T03:34:05.592Z,18.44
2017-07-17T03:34:46.212Z,18.41
2017-07-17T03:35:26.781Z,18.43
2017-07-17T03:36:07.358Z,18.43
2017-07-17T03:36:47.924Z,18.47
2017-07-17T03:37:28.542Z,18.49
2017-07-17T03:38:09.138Z,18.43
2017-07-17T03:38:49.703Z,18.5
2017-07-17T03:39:30.272Z,18.43
2017-07-17T03:40:10.881Z,18.45
2017-07-17T03:40:51.473Z,18.47
2017-07-17T03:41:32.077Z,18.52
2017-07-17T03:42:12.675Z,18.45
2017-07-17T03:42:53.263Z,18.41
2017-07-17T03:43:33.842Z,18.43
2017-07-17T03:44:14.421Z,18.38
2017-07-17T03:44:55.006Z,18.37
2017-07-17T03:45:35.618Z,18.44
2017-07-17T03:46:16.220Z,18.44
2017-07-17T03:46:56.849Z,18.44
2017-07-17T03:47:37.413Z,18.45
2017-07-17T03:48:18.002Z,18.45
2017-07-17T03:48:58.583Z,18.43
2017-07-17T03:49:39.272Z,18.43
2017-07-17T03:50:19.830Z,18.4
2017-07-17T03:51:00.411Z,18.41
2017-07-17T03:51:40.979Z,18.45
2017-07-17T03:52:21.555Z,18.33
2017-07-17T03:53:02.122Z,18.34
2017-07-17T03:53:42.711Z,18.35
2017-07-17T03:54:23.294Z,18.29
2017-07-17T03:55:03.879Z,18.31
2017-07-17T03:55:44.466Z,18.31
2017-07-17T03:56:25.046Z,18.29
2017-07-17T03:57:05.678Z,18.29
2017-07-17T03:57:46.260Z,18.31
2017-07-17T03:58:26.841Z,18.25
2017-07-17T03:59:07.432Z,18.28
2017-07-17T03:59:48.007Z,18.33
2017-07-17T04:00:28.575Z,18.31
2017-07-17T04:01:09.152Z,18.29
2017-07-17T04:01:49.748Z,18.23
2017-07-17T04:02:30.322Z,18.26
2017-07-17T04:03:10.944Z,18.26
2017-07-17T04:03:51.512Z,18.25
2017-07-17T04:04:32.102Z,18.4
2017-07-17T04:05:12.709Z,18.35
2017-07-17T04:05:53.284Z,18.34
2017-07-17T04:06:33.851Z,18.41
2017-07-17T04:07:14.421Z,18.33
2017-07-17T04:07:54.989Z,18.43
2017-07-17T04:08:35.559Z,18.37
2017-07-17T04:09:16.159Z,18.31
2017-07-17T04:09:56.723Z,18.37
2017-07-17T04:10:37.284Z,18.44
2017-07-17T04:11:17.864Z,18.33
2017-07-17T04:11:58.419Z,18.43
2017-07-17T04:12:38.986Z,18.35
2017-07-17T04:13:19.555Z,18.45
2017-07-17T04:14:00.124Z,18.34
2017-07-17T04:14:40.763Z,18.34
2017-07-17T04:15:21.330Z,18.4
2017-07-17T04:16:01.925Z,18.31
2017-07-17T04:16:42.553Z,18.29
2017-07-17T04:17:23.145Z,18.23
2017-07-17T04:18:03.745Z,18.31
2017-07-17T04:18:44.455Z,18.26
2017-07-17T04:19:25.065Z,18.28
2017-07-17T04:20:05.635Z,18.34
2017-07-17T04:20:46.190Z,18.26
2017-07-17T04:21:26.775Z,18.25
2017-07-17T04:22:07.367Z,18.26
2017-07-17T04:22:47.946Z,18.28
2017-07-17T04:23:28.535Z,18.31
2017-07-17T04:24:09.122Z,18.33
2017-07-17T04:24:49.697Z,18.31
2017-07-17T04:25:30.293Z,18.34
2017-07-17T04:26:10.891Z,18.33
2017-07-17T04:26:51.463Z,18.29
2017-07-17T04:27:32.045Z,18.28
2017-07-17T04:28:12.675Z,18.28
2017-07-17T04:28:53.248Z,18.19
2017-07-17T04:29:33.824Z,18.19
2017-07-17T04:30:14.406Z,18.16
2017-07-17T04:30:54.990Z,18.1
2017-07-17T04:31:35.588Z,18.2
2017-07-17T04:32:16.167Z,18.1
2017-07-17T04:32:56.731Z,18.1
2017-07-17T04:33:37.317Z,18.11
2017-07-17T04:34:17.942Z,18.1
2017-07-17T04:34:58.508Z,18.1
2017-07-17T04:35:39.093Z,18.11
2017-07-17T04:36:19.670Z,18.07
2017-07-17T04:37:00.347Z,18.07
2017-07-17T04:37:41.003Z,18.08
2017-07-17T04:38:21.567Z,18.11
2017-07-17T04:39:02.163Z,18.08
2017-07-17T04:39:42.730Z,18.07
2017-07-17T04:40:23.393Z,18.08
2017-07-17T04:41:03.967Z,18.15
2017-07-17T04:41:44.548Z,18.1
2017-07-17T04:42:25.138Z,18.11
2017-07-17T04:43:05.724Z,18.1
2017-07-17T04:43:46.295Z,18.13
2017-07-17T04:44:26.867Z,18.08
2017-07-17T04:45:07.448Z,18.15
2017-07-17T04:45:48.018Z,18.15
2017-07-17T04:46:28.586Z,18.18
2017-07-17T04:47:09.158Z,18.2
2017-07-17T04:47:49.733Z,18.16
2017-07-17T04:48:30.296Z,18.23
2017-07-17T04:49:10.876Z,18.16
2017-07-17T04:49:51.468Z,18.2
2017-07-17T04:50:32.039Z,18.13
2017-07-17T04:51:12.608Z,18.11
2017-07-17T04:51:53.179Z,18.15
2017-07-17T04:52:33.733Z,18.2
2017-07-17T04:53:14.327Z,18.16
2017-07-17T04:53:54.905Z,18.26
2017-07-17T04:54:35.494Z,18.25
2017-07-17T04:55:16.114Z,18.25
2017-07-17T04:55:56.698Z,18.25
2017-07-17T04:56:37.278Z,18.28
2017-07-17T04:57:17.964Z,18.34
2017-07-17T04:57:58.546Z,18.41
2017-07-17T04:58:39.115Z,18.45
2017-07-17T04:59:19.752Z,18.35
2017-07-17T05:00:00.403Z,18.43
2017-07-17T05:00:41.068Z,18.44
2017-07-17T05:01:21.730Z,18.45
2017-07-17T05:02:02.368Z,18.47
2017-07-17T05:02:42.985Z,18.52
2017-07-17T05:03:23.604Z,18.43
2017-07-17T05:04:04.193Z,18.44
2017-07-17T05:04:45.401Z,18.43
2017-07-17T05:05:25.979Z,18.45
2017-07-17T05:06:06.587Z,18.49
2017-07-17T05:06:47.630Z,18.49
2017-07-17T05:07:28.193Z,18.56
2017-07-17T05:08:08.754Z,18.62
2017-07-17T05:08:49.500Z,18.58
2017-07-17T05:09:30.068Z,18.62
2017-07-17T05:10:10.639Z,18.56
2017-07-17T05:10:51.225Z,18.6
2017-07-17T05:11:31.793Z,18.58
2017-07-17T05:12:12.370Z,18.65
2017-07-17T05:12:52.951Z,18.65
2017-07-17T05:13:33.560Z,18.55
2017-07-17T05:14:14.121Z,18.65
2017-07-17T05:14:54.715Z,18.65
2017-07-17T05:15:35.299Z,18.65
2017-07-17T05:16:15.846Z,18.68
2017-07-17T05:16:56.440Z,18.75
2017-07-17T05:17:37.016Z,18.8
2017-07-17T05:18:17.593Z,18.73
2017-07-17T05:18:58.185Z,18.73
2017-07-17T05:19:38.769Z,18.78
2017-07-17T05:20:19.390Z,18.73
2017-07-17T05:21:00.006Z,18.78
2017-07-17T05:21:40.594Z,18.88
2017-07-17T05:22:21.163Z,18.77
2017-07-17T05:23:01.726Z,18.89
2017-07-17T05:23:42.304Z,18.84
2017-07-17T05:24:22.871Z,18.9
2017-07-17T05:25:03.443Z,18.9
2017-07-17T05:25:44.031Z,18.92
2017-07-17T05:26:24.609Z,19.04
2017-07-17T05:27:05.200Z,19.11
2017-07-17T05:27:45.798Z,19.11
2017-07-17T05:28:26.381Z,19.11
2017-07-17T05:29:06.975Z,19.14
2017-07-17T05:29:47.542Z,19.18
2017-07-17T05:30:28.152Z,19.24
2017-07-17T05:31:08.741Z,19.19
2017-07-17T05:31:49.319Z,19.33
2017-07-17T05:32:29.875Z,19.36
2017-07-17T05:33:10.464Z,19.31
2017-07-17T05:33:51.045Z,19.31
2017-07-17T05:34:31.626Z,19.27
2017-07-17T05:35:12.201Z,19.29
2017-07-17T05:35:52.766Z,19.33
2017-07-17T05:36:33.350Z,19.16
2017-07-17T05:37:13.925Z,19.31
2017-07-17T05:37:54.494Z,19.19
2017-07-17T05:38:35.071Z,19.19
2017-07-17T05:39:15.654Z,19.29
2017-07-17T05:39:56.228Z,19.26
2017-07-17T05:40:36.891Z,19.29
2017-07-17T05:41:17.477Z,19.27
2017-07-17T05:41:58.065Z,19.3
2017-07-17T05:42:38.652Z,19.34
2017-07-17T05:43:19.230Z,19.3
2017-07-17T05:43:59.811Z,19.39
2017-07-17T05:44:40.394Z,19.34
2017-07-17T05:45:20.969Z,19.41
2017-07-17T05:46:01.566Z,19.49
2017-07-17T05:46:42.171Z,19.52
2017-07-17T05:47:22.772Z,19.39
2017-07-17T05:48:03.465Z,19.41
2017-07-17T05:48:44.040Z,19.45
2017-07-17T05:49:24.616Z,19.37
2017-07-17T05:50:05.204Z,19.39
2017-07-17T05:50:45.799Z,19.33
2017-07-17T05:51:26.396Z,19.29
2017-07-17T05:52:06.969Z,19.34
2017-07-17T05:52:47.666Z,19.24
2017-07-17T05:53:28.239Z,19.21
2017-07-17T05:54:08.860Z,19.26
2017-07-17T05:54:49.449Z,19.24
2017-07-17T05:55:30.049Z,19.21
2017-07-17T05:56:10.631Z,19.24
2017-07-17T05:56:51.256Z,19.27
2017-07-17T05:57:31.857Z,19.31
2017-07-17T05:58:12.552Z,19.31
2017-07-17T05:58:53.160Z,19.34
2017-07-17T05:59:33.773Z,19.33
2017-07-17T06:00:14.369Z,19.47
2017-07-17T06:00:54.962Z,19.56
2017-07-17T06:01:35.548Z,19.74
2017-07-17T06:02:16.133Z,19.77
2017-07-17T06:02:56.711Z,19.85
2017-07-17T06:03:37.279Z,19.88
2017-07-17T06:04:17.869Z,19.99
2017-07-17T06:04:58.445Z,20.22
2017-07-17T06:05:39.031Z,20.29
2017-07-17T06:06:19.692Z,20.4
2017-07-17T06:07:00.301Z,20.41
2017-07-17T06:07:40.961Z,20.52
2017-07-17T06:08:21.563Z,20.69
2017-07-17T06:09:02.136Z,20.74
2017-07-17T06:09:42.733Z,20.82
2017-07-17T06:10:23.310Z,20.9
2017-07-17T06:11:03.884Z,20.82
2017-07-17T06:11:44.503Z,20.74
2017-07-17T06:12:25.133Z,20.78
2017-07-17T06:13:05.723Z,20.72
2017-07-17T06:13:46.525Z,20.69
2017-07-17T06:14:27.105Z,20.63
2017-07-17T06:15:07.676Z,20.59
2017-07-17T06:15:48.263Z,20.48
2017-07-17T06:16:28.825Z,20.48
2017-07-17T06:17:09.465Z,20.41
2017-07-17T06:17:50.009Z,20.26
2017-07-17T06:18:30.609Z,20.22
2017-07-17T06:19:11.174Z,20.13
2017-07-17T06:19:51.767Z,20.13
2017-07-17T06:20:32.356Z,20.16
2017-07-17T06:21:12.926Z,20.09
2017-07-17T06:21:53.513Z,20.1
2017-07-17T06:22:34.092Z,20.03
2017-07-17T06:23:14.685Z,19.91
2017-07-17T06:23:55.267Z,19.86
2017-07-17T06:24:35.845Z,19.89
2017-07-17T06:25:16.484Z,19.88
2017-07-17T06:25:57.085Z,19.88
2017-07-17T06:26:37.659Z,19.89
2017-07-17T06:27:18.245Z,19.69
2017-07-17T06:27:58.819Z,19.85
2017-07-17T06:28:39.402Z,19.86
2017-07-17T06:29:20.003Z,20.04
2017-07-17T06:30:00.571Z,19.99
2017-07-17T06:30:41.149Z,19.99
2017-07-17T06:31:21.740Z,19.94
2017-07-17T06:32:02.328Z,20.04
2017-07-17T06:32:42.940Z,19.96
2017-07-17T06:33:23.512Z,19.94
2017-07-17T06:34:04.086Z,20.16
2017-07-17T06:34:44.669Z,20.18
2017-07-17T06:35:25.321Z,20.19
2017-07-17T06:36:05.955Z,20.18
2017-07-17T06:36:46.537Z,20.24
2017-07-17T06:37:27.122Z,20.32
2017-07-17T06:38:07.760Z,20.32
2017-07-17T06:38:48.328Z,20.1
2017-07-17T06:39:28.932Z,20.26
2017-07-17T06:40:09.505Z,20.1
2017-07-17T06:40:50.075Z,20.14
2017-07-17T06:41:30.647Z,20.13
2017-07-17T06:42:11.259Z,20.1
2017-07-17T06:42:51.873Z,20.22
2017-07-17T06:43:32.504Z,20.31
2017-07-17T06:44:13.087Z,20.39
2017-07-17T06:44:53.664Z,20.67
2017-07-17T06:45:34.242Z,20.85
2017-07-17T06:46:14.832Z,20.96
2017-07-17T06:46:55.413Z,21.03
2017-07-17T06:47:36.035Z,21.02
2017-07-17T06:48:16.678Z,21.09
2017-07-17T06:48:57.256Z,21.09
2017-07-17T06:49:37.938Z,20.92
2017-07-17T06:50:18.530Z,20.93
2017-07-17T06:50:59.115Z,20.92
2017-07-17T06:51:39.725Z,20.96
2017-07-17T06:52:20.563Z,21.05
2017-07-17T06:53:01.165Z,21.09
2017-07-17T06:53:41.753Z,21.24
2017-07-17T06:54:22.397Z,21.27
2017-07-17T06:55:02.982Z,21.29
2017-07-17T06:55:43.565Z,21.27
2017-07-17T06:56:24.217Z,21.39
2017-07-17T06:58:17.375Z,21.67
2017-07-17T06:58:58.901Z,21.82
2017-07-17T06:59:39.587Z,21.85
2017-07-17T07:00:20.218Z,21.89
2017-07-17T07:01:01.181Z,22.02
2017-07-17T07:01:41.787Z,22.02
2017-07-17T07:02:22.372Z,22.2
2017-07-17T07:03:03.049Z,22.22
2017-07-17T07:03:43.681Z,22.38
2017-07-17T07:04:24.293Z,22.48
2017-07-17T07:05:06.082Z,22.63
2017-07-17T07:05:46.844Z,22.69
2017-07-17T07:06:27.559Z,22.78
2017-07-17T07:07:08.265Z,22.88
2017-07-17T07:07:49.263Z,23
2017-07-17T07:08:29.832Z,23.12
2017-07-17T07:09:10.422Z,23.2
2017-07-17T07:09:50.999Z,23.2
2017-07-17T07:10:31.752Z,23.37
2017-07-17T07:11:12.273Z,23.36
2017-07-17T07:11:52.885Z,23.36
2017-07-17T07:12:33.569Z,23.36
2017-07-17T07:13:14.086Z,23.47
2017-07-17T07:13:54.679Z,23.4
2017-07-17T07:14:35.264Z,23.2
2017-07-17T07:15:15.940Z,23.12
2017-07-17T07:15:56.523Z,22.88
2017-07-17T07:16:37.096Z,22.72
2017-07-17T07:17:17.687Z,22.5
2017-07-17T07:17:58.255Z,22.33
2017-07-17T07:18:38.851Z,22.26
2017-07-17T07:19:19.427Z,22.11
2017-07-17T07:20:00.046Z,22.07
2017-07-17T07:20:40.624Z,21.96
2017-07-17T07:21:21.201Z,21.96
2017-07-17T07:22:01.793Z,21.92
2017-07-17T07:22:42.387Z,21.88
2017-07-17T07:23:23.009Z,21.82
2017-07-17T07:24:03.574Z,21.75
2017-07-17T07:24:44.203Z,21.62
2017-07-17T07:25:24.788Z,21.62
2017-07-17T07:26:05.379Z,21.52
2017-07-17T07:26:45.953Z,21.5
2017-07-17T07:27:26.545Z,21.43
2017-07-17T07:28:07.122Z,21.4
2017-07-17T07:28:47.700Z,21.27
2017-07-17T07:29:28.320Z,21.12
2017-07-17T07:30:08.910Z,21.06
2017-07-17T07:30:49.479Z,21.15
2017-07-17T07:31:30.074Z,21.15
2017-07-17T07:32:10.664Z,20.9
2017-07-17T07:32:51.249Z,20.97
2017-07-17T07:33:31.830Z,20.85
2017-07-17T07:34:12.411Z,20.85
2017-07-17T07:34:52.994Z,20.81
2017-07-17T07:35:33.566Z,20.77
2017-07-17T07:36:14.132Z,20.69
2017-07-17T07:36:54.720Z,20.8
2017-07-17T07:37:35.303Z,20.65
2017-07-17T07:38:15.897Z,20.69
2017-07-17T07:38:56.523Z,20.74
2017-07-17T07:39:37.101Z,20.93
2017-07-17T07:40:17.703Z,21.06
2017-07-17T07:40:59.100Z,21.18
2017-07-17T07:41:39.691Z,21.4
2017-07-17T07:42:20.283Z,21.64
2017-07-17T07:43:00.907Z,21.67
2017-07-17T07:43:41.488Z,21.8
2017-07-17T07:44:22.088Z,21.93
2017-07-17T07:45:02.860Z,22.07
2017-07-17T07:45:43.434Z,22.2
2017-07-17T07:46:24.112Z,22.44
2017-07-17T07:47:04.959Z,22.59
2017-07-17T07:47:45.595Z,22.65
2017-07-17T07:48:26.279Z,22.84
2017-07-17T07:49:06.932Z,22.94
2017-07-17T07:49:47.531Z,22.96
2017-07-17T07:50:28.119Z,23.09
2017-07-17T07:51:08.849Z,23.17
2017-07-17T07:51:49.422Z,23.1
2017-07-17T07:52:30.318Z,23.12
2017-07-17T07:53:11.119Z,23.1
2017-07-17T07:53:51.958Z,23.09
2017-07-17T07:54:32.591Z,23.05
2017-07-17T07:55:13.273Z,23.05
2017-07-17T07:55:54.192Z,23.1
2017-07-17T07:56:34.788Z,23.18
2017-07-17T07:57:15.468Z,23.21
2017-07-17T07:57:56.179Z,23.2
2017-07-17T07:58:36.789Z,23.21
2017-07-17T07:59:17.388Z,23.13
2017-07-17T07:59:58.011Z,23.03
2017-07-17T08:00:38.560Z,22.96
2017-07-17T08:01:19.147Z,23.02
2017-07-17T08:02:00.523Z,23.09
2017-07-17T08:02:40.669Z,23.09
2017-07-17T08:03:21.351Z,23.15
2017-07-17T08:04:01.891Z,23.18
2017-07-17T08:04:42.540Z,23.27
2017-07-17T08:05:23.128Z,23.23
2017-07-17T08:06:03.724Z,23.2
2017-07-17T08:06:44.334Z,23.32
2017-07-17T08:07:24.932Z,23.39
2017-07-17T08:08:05.512Z,23.31
2017-07-17T08:08:46.088Z,23.28
2017-07-17T08:09:26.675Z,23.32
2017-07-17T08:10:07.261Z,23.34
2017-07-17T08:10:47.857Z,23.36
2017-07-17T08:11:28.427Z,23.15
2017-07-17T08:12:08.996Z,23.13
2017-07-17T08:12:49.679Z,23.13
2017-07-17T08:13:30.324Z,23.17
2017-07-17T08:14:10.950Z,23.21
2017-07-17T08:14:51.559Z,23.15
2017-07-17T08:15:32.150Z,23.12
2017-07-17T08:16:12.728Z,23.15
2017-07-17T08:16:53.285Z,23.06
2017-07-17T08:17:33.893Z,23.02
2017-07-17T08:18:14.475Z,23.08
2017-07-17T08:18:55.040Z,23.05
2017-07-17T08:19:35.603Z,23.08
2017-07-17T08:20:16.178Z,23.18
2017-07-17T08:20:56.769Z,23.18
2017-07-17T08:21:37.375Z,23.37
2017-07-17T08:22:17.990Z,23.4
2017-07-17T08:22:58.550Z,23.5
2017-07-17T08:23:39.130Z,23.43
2017-07-17T08:24:19.714Z,23.5
2017-07-17T08:25:00.297Z,23.43
2017-07-17T08:25:41.095Z,23.41
2017-07-17T08:26:21.670Z,23.44
2017-07-17T08:27:02.289Z,23.46
2017-07-17T08:27:42.905Z,23.47
2017-07-17T08:28:23.487Z,23.58
2017-07-17T08:29:04.065Z,23.61
2017-07-17T08:29:44.661Z,23.47
2017-07-17T08:30:25.244Z,23.48
2017-07-17T08:31:05.829Z,23.41
2017-07-17T08:31:46.405Z,23.51
2017-07-17T08:32:27.001Z,23.43
2017-07-17T08:33:07.617Z,23.54
2017-07-17T08:33:48.188Z,23.46
2017-07-17T08:34:28.813Z,23.61
2017-07-17T08:35:09.398Z,23.61
2017-07-17T08:35:50.026Z,23.5
2017-07-17T08:36:30.604Z,23.44
2017-07-17T08:37:11.200Z,23.36
2017-07-17T08:37:51.776Z,23.31
2017-07-17T08:38:32.358Z,23.21
2017-07-17T08:39:12.947Z,23.05
2017-07-17T08:39:53.542Z,23.06
2017-07-17T08:40:34.170Z,23.05
2017-07-17T08:41:14.843Z,23.03
2017-07-17T08:41:55.423Z,23.02
2017-07-17T08:42:35.982Z,23.03
2017-07-17T08:43:16.641Z,23.03
2017-07-17T08:43:57.386Z,23.03
2017-07-17T08:44:37.823Z,22.99
2017-07-17T08:45:18.405Z,23.03
2017-07-17T08:45:58.987Z,22.85
2017-07-17T08:46:39.611Z,22.85